Darstellungsparameter: Aktuell verwendete Einstellungen:
Skalierung der Graphiken ... ?
xyx+y,   Skalierungsfaktor:      Skalierung: Modus: x, Faktor: 1
Darstellungszeitraum ... ?
Vom - - bis: - -   Zeitraum: 03.03.2021 - 03.03.2021
Min/Max/Avg-Anzeige ... ?
Zeige MMA aktuell
Zeige MMA Monat
Zeige MMA alles
Zeige --A aktuell
Zeige --A Monat
Zeige --A alles
Keine MMA-Anzeige
MMA:
Average (ber die Originaldaten)
MMA-Basis: 23.02.2003 - 19.08.2019
Quicknavigation für Darstellung... ?
Tage:      1T, 2T, 3T, 5T -1T -2T -3T -5T +1T +2T +3T +5T
Wochen: 1W, 2W, 3W -1W -2W -3W +1W +2W +3W
Monate: 1M, 3M, 6M -1M -3M -6M +1M +3M +6M
Jahre:    1J, 3J, 5J, 10J -1J -3J -5J -10J +1J +3J +5J +10J
Nutze für die Darstellung ... ?
Originaldaten oder Mittelwerte auf ...
Stundenbasis Tagesbasis Wochenbasis
Monatsbasis Jahresbasis      Datenbasis: Original-Daten
Darstellen als:
Statistik (Auto) Statistik J:M      Darstellung:

Der gewünschte Datumsbereich war nicht gültig/verfügbar und wurde korrigiert....
Das angegebene Enddatum (18.08.2024 23:59:59) liegt in der Zukunft.
Das angegebene Startdatum (18.08.2024 00:00:00) liegt in der Zukunft.


Zur Graphik,    zurück zur Übersicht aller Sensoren.
 
Tabellarische Datenbersicht: ?
 
Sensor: Nr:Datum:Temp:Feuchte:Taupunkt:
Aussen-T/F 1 03-03-2021 01:00:00 2.3 C 93 % 1.29 C
2 03-03-2021 01:05:00 2.3 C 93 % 1.29 C
3 03-03-2021 01:10:00 2.3 C 93 % 1.29 C
4 03-03-2021 01:15:00 2.3 C 93 % 1.29 C
5 03-03-2021 01:20:00 2.2 C 93 % 1.19 C
6 03-03-2021 01:25:00 2.1 C 93 % 1.09 C
7 03-03-2021 01:30:00 2 C 93 % 0.99 C
8 03-03-2021 01:35:00 1.9 C 93 % 0.89 C
9 03-03-2021 01:40:00 1.8 C 93 % 0.79 C
10 03-03-2021 01:45:00 1.8 C 93 % 0.79 C
11 03-03-2021 01:50:00 1.8 C 93 % 0.79 C
12 03-03-2021 01:55:00 1.8 C 93 % 0.79 C
13 03-03-2021 02:00:00 1.7 C 93 % 0.69 C
14 03-03-2021 02:05:00 1.7 C 93 % 0.69 C
15 03-03-2021 02:10:00 1.5 C 93 % 0.49 C
16 03-03-2021 02:15:00 1.5 C 94 % 0.64 C
17 03-03-2021 02:20:00 1.4 C 93 % 0.4 C
18 03-03-2021 02:25:00 1.5 C 94 % 0.64 C
19 03-03-2021 02:30:00 1.4 C 94 % 0.54 C
20 03-03-2021 02:35:00 1.4 C 94 % 0.54 C
21 03-03-2021 02:40:00 1.3 C 94 % 0.44 C
22 03-03-2021 02:45:00 1.2 C 94 % 0.34 C
23 03-03-2021 02:50:00 1.2 C 94 % 0.34 C
24 03-03-2021 02:55:00 1.2 C 94 % 0.34 C
25 03-03-2021 03:00:00 1.2 C 94 % 0.34 C
Sensor: Nr:Datum:Temp:Feuchte:Taupunkt:
Aussen-T/F 26 03-03-2021 03:05:00 1.1 C 94 % 0.24 C
27 03-03-2021 03:10:00 1.2 C 94 % 0.34 C
28 03-03-2021 03:15:00 1.2 C 94 % 0.34 C
29 03-03-2021 03:20:00 1.2 C 94 % 0.34 C
30 03-03-2021 03:25:00 1.1 C 94 % 0.24 C
31 03-03-2021 03:30:00 1.1 C 94 % 0.24 C
32 03-03-2021 03:35:00 1 C 94 % 0.15 C
33 03-03-2021 03:40:00 0.9 C 94 % 0.05 C
34 03-03-2021 03:45:00 1 C 94 % 0.15 C
35 03-03-2021 03:50:00 1 C 94 % 0.15 C
36 03-03-2021 03:55:00 1.1 C 95 % 0.39 C
37 03-03-2021 04:00:00 1.1 C 95 % 0.39 C
38 03-03-2021 04:05:00 1.2 C 95 % 0.49 C
39 03-03-2021 04:10:00 1.2 C 95 % 0.49 C
40 03-03-2021 04:15:00 1.2 C 95 % 0.49 C
41 03-03-2021 04:20:00 1.3 C 95 % 0.59 C
42 03-03-2021 04:25:00 1.4 C 95 % 0.69 C
43 03-03-2021 04:30:00 1.5 C 95 % 0.79 C
44 03-03-2021 04:35:00 1.4 C 95 % 0.69 C
45 03-03-2021 04:40:00 1.3 C 95 % 0.59 C
46 03-03-2021 04:45:00 1.2 C 95 % 0.49 C
47 03-03-2021 04:50:00 1.1 C 94 % 0.24 C
48 03-03-2021 04:55:00 1 C 95 % 0.29 C
49 03-03-2021 05:00:00 0.9 C 95 % 0.19 C
50 03-03-2021 05:05:00 0.8 C 94 % -0.05 C
Sensor: Nr:Datum:Temp:Feuchte:Taupunkt:
Aussen-T/F 51 03-03-2021 05:10:00 0.8 C 95 % 0.09 C
52 03-03-2021 05:15:00 0.8 C 95 % 0.09 C
53 03-03-2021 05:20:00 0.7 C 95 % -0.01 C
54 03-03-2021 05:25:00 0.7 C 95 % -0.01 C
55 03-03-2021 05:30:00 0.8 C 95 % 0.09 C
56 03-03-2021 05:35:00 0.9 C 95 % 0.19 C
57 03-03-2021 05:40:00 1 C 95 % 0.29 C
58 03-03-2021 05:45:00 1.1 C 95 % 0.39 C
59 03-03-2021 05:50:00 1.1 C 95 % 0.39 C
60 03-03-2021 05:55:00 1.1 C 95 % 0.39 C
61 03-03-2021 06:00:00 1 C 95 % 0.29 C
62 03-03-2021 06:05:00 0.9 C 95 % 0.19 C
63 03-03-2021 06:10:00 0.8 C 95 % 0.09 C
64 03-03-2021 06:15:00 0.8 C 95 % 0.09 C
65 03-03-2021 06:20:00 0.7 C 95 % -0.01 C
66 03-03-2021 06:25:00 0.7 C 95 % -0.01 C
67 03-03-2021 06:30:00 0.7 C 95 % -0.01 C
68 03-03-2021 06:35:00 0.8 C 95 % 0.09 C
69 03-03-2021 06:40:00 0.9 C 95 % 0.19 C
70 03-03-2021 06:45:00 0.9 C 96 % 0.34 C
71 03-03-2021 06:50:00 0.9 C 95 % 0.19 C
72 03-03-2021 06:55:00 0.9 C 95 % 0.19 C
73 03-03-2021 07:00:00 0.9 C 95 % 0.19 C
74 03-03-2021 07:05:00 0.8 C 95 % 0.09 C

Legende:
   Min
   Max


Maximal/Minimal-Werte vom 23.02.2003 - 19.08.2019

Sensor Min Max Avg
Temp
(Aussen-T/F)
-16.4 °C
20-12-2009  01:30:01
40.4 °C
25-07-2019  16:20:00
11.22 °C
Feuchte
(Aussen-T/F)
18 %
17-07-2015  15:55:00
100 %
07-10-2012  03:05:00
76.99 %

Die Daten stammen von einer Davis Vantage Pro 2 Wetter-Station und werden unter Linux mit der Software wview2wettercgi und aufbereitet. Alle Angaben erfolgen ohne Gewähr für ihre Vollständigkeit oder Richtigkeit.
Kontakt: Rainer Krienke krienke@uni-koblenz.de . Meine Webseiten an der Uni Koblenz oder privat.
Version: $Revision: 0.78 $